Time;durP1;ratioP1;P1;durP2;ratioP2;P2;SDS_P1;SDS_P2;PMS_P1;PMS_P2;Temp;Humidity;BMP_temperature;BMP_pressure;BME280_temperature;BME280_humidity;BME280_pressure;Samples;Min_cycle;Max_cycle;Signal;HPM_P1;HPM_P2
2021/03/24 00:00:33;;;;;;;7.50;4.35;;;;;;;;;;4986592;28;20038;-64
2021/03/24 00:02:58;;;;;;;15.80;9.18;;;;;;;;;;4980340;28;20062;-63
2021/03/24 00:05:28;;;;;;;23.08;13.88;;;;;;;;;;4986314;28;20022;-64
2021/03/24 00:07:53;;;;;;;11.32;8.95;;;;;;;;;;4988411;28;20045;-64
2021/03/24 00:10:22;;;;;;;11.95;9.18;;;;;;;;;;4988204;28;20027;-64
2021/03/24 00:12:48;;;;;;;12.43;8.05;;;;;;;;;;4981072;28;20029;-63
2021/03/24 00:15:13;;;;;;;12.10;8.85;;;;;;;;;;4988031;28;20117;-63
2021/03/24 00:17:39;;;;;;;10.93;9.07;;;;;;;;;;4985821;28;20037;-63
2021/03/24 00:20:05;;;;;;;9.27;7.35;;;;;;;;;;4988707;28;20134;-63
2021/03/24 00:22:31;;;;;;;13.32;8.27;;;;;;;;;;4987906;28;20037;-64
2021/03/24 00:24:56;;;;;;;10.15;7.07;;;;;;;;;;4987646;28;20026;-64
2021/03/24 00:27:21;;;;;;;13.02;5.13;;;;;;;;;;4988358;28;20521;-63
2021/03/24 00:29:46;;;;;;;6.18;4.38;;;;;;;;;;4985414;28;20041;-64
2021/03/24 00:32:12;;;;;;;11.73;6.13;;;;;;;;;;4987189;28;20109;-63
2021/03/24 00:34:37;;;;;;;11.43;7.43;;;;;;;;;;4988671;28;20397;-64
2021/03/24 00:37:02;;;;;;;13.13;8.45;;;;;;;;;;4984850;28;20034;-63
2021/03/24 00:39:28;;;;;;;10.80;6.68;;;;;;;;;;4985692;28;20105;-63
2021/03/24 00:41:53;;;;;;;5.60;4.30;;;;;;;;;;4988242;28;20030;-63
2021/03/24 00:44:19;;;;;;;7.65;3.97;;;;;;;;;;4986904;28;20026;-63
2021/03/24 00:46:44;;;;;;;9.38;4.30;;;;;;;;;;4982645;28;20023;-63
2021/03/24 00:49:09;;;;;;;6.07;3.90;;;;;;;;;;4988220;28;20369;-63
2021/03/24 00:51:34;;;;;;;10.02;4.60;;;;;;;;;;4986927;28;20034;-63
2021/03/24 00:54:00;;;;;;;6.22;4.13;;;;;;;;;;4982176;28;20030;-63
2021/03/24 00:56:25;;;;;;;6.45;4.05;;;;;;;;;;4988275;28;20030;-63
2021/03/24 00:58:50;;;;;;;5.07;3.15;;;;;;;;;;4981123;28;20034;-63
2021/03/24 01:01:16;;;;;;;6.20;4.13;;;;;;;;;;4976136;28;20148;-64
2021/03/24 01:03:41;;;;;;;5.38;3.67;;;;;;;;;;4988416;28;20110;-63
2021/03/24 01:06:07;;;;;;;8.00;3.75;;;;;;;;;;4988232;28;20022;-64
2021/03/24 01:08:32;;;;;;;6.53;5.15;;;;;;;;;;4981439;28;20034;-64
2021/03/24 01:11:00;;;;;;;8.50;5.97;;;;;;;;;;4988137;28;20113;-64
2021/03/24 01:13:25;;;;;;;9.45;6.90;;;;;;;;;;4982059;28;20512;-63
2021/03/24 01:15:51;;;;;;;10.50;7.68;;;;;;;;;;4988082;28;20030;-63
2021/03/24 01:18:17;;;;;;;8.30;6.72;;;;;;;;;;4987128;28;20457;-64
2021/03/24 01:20:43;;;;;;;8.63;4.78;;;;;;;;;;4988150;28;20474;-64
2021/03/24 01:23:08;;;;;;;14.38;4.82;;;;;;;;;;4985514;28;20028;-63
2021/03/24 01:25:33;;;;;;;6.45;4.63;;;;;;;;;;4988155;28;20036;-63
2021/03/24 01:27:59;;;;;;;10.10;4.00;;;;;;;;;;4989500;28;20496;-63
2021/03/24 01:30:27;;;;;;;5.88;4.65;;;;;;;;;;4989638;28;20051;-63
2021/03/24 01:32:52;;;;;;;13.02;5.15;;;;;;;;;;4990471;28;20045;-63
2021/03/24 01:35:18;;;;;;;6.22;4.60;;;;;;;;;;4990782;28;20058;-63
2021/03/24 01:37:43;;;;;;;4.32;3.47;;;;;;;;;;4991217;28;20022;-63
2021/03/24 01:40:41;;;;;;;5.25;4.32;;;;;;;;;;4988558;28;20505;-63
2021/03/24 01:43:09;;;;;;;18.17;9.30;;;;;;;;;;4956995;28;20129;-63
2021/03/24 01:45:35;;;;;;;9.88;6.53;;;;;;;;;;4987672;28;20726;-64
2021/03/24 01:48:02;;;;;;;5.53;4.05;;;;;;;;;;4990745;28;20117;-63
2021/03/24 01:50:29;;;;;;;8.40;3.38;;;;;;;;;;4990722;28;20031;-63
2021/03/24 01:52:54;;;;;;;5.65;3.97;;;;;;;;;;4992444;28;20053;-64
2021/03/24 01:55:20;;;;;;;8.85;6.30;;;;;;;;;;4994271;28;20057;-64
2021/03/24 01:57:45;;;;;;;10.55;6.68;;;;;;;;;;4994552;28;20028;-64
2021/03/24 02:00:14;;;;;;;8.43;5.63;;;;;;;;;;4994560;28;20471;-63
2021/03/24 02:02:39;;;;;;;5.55;4.45;;;;;;;;;;4994300;28;20592;-63
2021/03/24 02:05:06;;;;;;;7.80;4.53;;;;;;;;;;4991173;28;20027;-63
2021/03/24 02:07:34;;;;;;;7.28;4.55;;;;;;;;;;4993646;28;20085;-62
2021/03/24 02:10:11;;;;;;;8.77;5.05;;;;;;;;;;4994366;28;20143;-64
2021/03/24 02:13:06;;;;;;;7.13;4.82;;;;;;;;;;4994149;28;20038;-64
2021/03/24 02:15:34;;;;;;;6.50;4.70;;;;;;;;;;4940333;28;20067;-64
2021/03/24 02:18:00;;;;;;;8.25;5.30;;;;;;;;;;4992827;28;20026;-72
2021/03/24 02:20:25;;;;;;;10.60;5.53;;;;;;;;;;4987103;28;20069;-71
2021/03/24 02:22:54;;;;;;;5.55;4.00;;;;;;;;;;4993922;28;20019;-72
2021/03/24 02:31:26;;;;;;;6.22;2.88;;;;;;;;;;4991497;28;20096;-72
2021/03/24 02:33:53;;;;;;;3.30;2.67;;;;;;;;;;4976483;28;20077;-72
2021/03/24 02:36:20;;;;;;;4.72;2.78;;;;;;;;;;4990684;28;20034;-72
2021/03/24 02:38:47;;;;;;;4.22;3.00;;;;;;;;;;4993666;28;20030;-72
2021/03/24 02:41:13;;;;;;;4.88;3.28;;;;;;;;;;4993169;28;20022;-72
2021/03/24 02:43:39;;;;;;;2.60;2.40;;;;;;;;;;4989260;28;20021;-72
2021/03/24 02:46:05;;;;;;;5.60;2.97;;;;;;;;;;4993758;28;20461;-72
2021/03/24 02:48:33;;;;;;;6.90;2.88;;;;;;;;;;4993525;28;20065;-72
2021/03/24 02:51:00;;;;;;;7.38;3.17;;;;;;;;;;4991919;28;20034;-72
2021/03/24 02:53:27;;;;;;;2.70;2.03;;;;;;;;;;4992694;28;20026;-72
2021/03/24 02:55:53;;;;;;;3.92;2.30;;;;;;;;;;4993380;28;20035;-72
2021/03/24 02:58:18;;;;;;;11.60;6.35;;;;;;;;;;4993268;28;20113;-72
2021/03/24 03:00:46;;;;;;;9.68;5.43;;;;;;;;;;4988839;28;20110;-70
2021/03/24 03:03:13;;;;;;;6.70;3.97;;;;;;;;;;4990640;28;20045;-72
2021/03/24 03:05:40;;;;;;;4.15;2.92;;;;;;;;;;4992554;28;20385;-72
2021/03/24 03:08:08;;;;;;;3.70;3.30;;;;;;;;;;4993117;28;20025;-71
2021/03/24 03:10:41;;;;;;;8.13;3.22;;;;;;;;;;4993072;28;20026;-72
2021/03/24 03:13:06;;;;;;;4.28;3.13;;;;;;;;;;4993226;28;20022;-72
2021/03/24 03:15:34;;;;;;;4.78;2.47;;;;;;;;;;4989723;28;20033;-72
2021/03/24 03:18:04;;;;;;;4.53;3.03;;;;;;;;;;4990369;28;20054;-72
2021/03/24 03:20:35;;;;;;;5.00;2.80;;;;;;;;;;4992586;28;20057;-72
2021/03/24 03:23:08;;;;;;;6.80;2.47;;;;;;;;;;4991376;28;20026;-70
2021/03/24 03:25:36;;;;;;;3.97;2.55;;;;;;;;;;4991556;28;20355;-72
2021/03/24 03:28:03;;;;;;;7.95;3.10;;;;;;;;;;4992035;28;20033;-72
2021/03/24 03:30:30;;;;;;;3.58;2.40;;;;;;;;;;4992571;28;20569;-72
2021/03/24 03:32:58;;;;;;;3.80;2.47;;;;;;;;;;4992699;28;20053;-72
2021/03/24 03:35:24;;;;;;;2.88;2.38;;;;;;;;;;4993098;28;20038;-72
2021/03/24 03:37:51;;;;;;;3.53;2.92;;;;;;;;;;4992643;28;20018;-72
2021/03/24 03:40:17;;;;;;;5.93;2.13;;;;;;;;;;4992779;28;20034;-71
2021/03/24 03:42:43;;;;;;;5.75;2.55;;;;;;;;;;4992756;28;20053;-72
2021/03/24 03:45:09;;;;;;;3.08;2.30;;;;;;;;;;4988181;28;20769;-72
2021/03/24 03:47:34;;;;;;;2.72;1.92;;;;;;;;;;4992633;28;20146;-64
2021/03/24 03:50:00;;;;;;;3.78;2.53;;;;;;;;;;4992597;28;20046;-64
2021/03/24 03:52:31;;;;;;;5.57;2.35;;;;;;;;;;4992214;28;20157;-64
2021/03/24 03:55:02;;;;;;;8.50;3.92;;;;;;;;;;4992285;28;20484;-64
2021/03/24 03:57:32;;;;;;;4.18;3.03;;;;;;;;;;4991654;28;20422;-64
2021/03/24 04:00:09;;;;;;;4.55;2.88;;;;;;;;;;4992190;28;20043;-64
2021/03/24 04:02:37;;;;;;;11.27;3.17;;;;;;;;;;4991139;28;20057;-64
2021/03/24 04:05:07;;;;;;;3.22;2.58;;;;;;;;;;4988025;28;20030;-64
2021/03/24 04:07:35;;;;;;;4.85;2.65;;;;;;;;;;4992317;28;20509;-65
2021/03/24 04:10:02;;;;;;;3.97;2.38;;;;;;;;;;4989658;28;20448;-65
2021/03/24 04:12:28;;;;;;;4.05;2.88;;;;;;;;;;4992113;28;20069;-65
2021/03/24 04:14:53;;;;;;;3.38;1.75;;;;;;;;;;4991634;28;20054;-65
2021/03/24 04:17:22;;;;;;;12.88;2.00;;;;;;;;;;4988551;28;20027;-65
2021/03/24 04:19:49;;;;;;;5.20;3.92;;;;;;;;;;4985849;28;20081;-65
2021/03/24 04:22:15;;;;;;;3.35;2.42;;;;;;;;;;4991851;28;20076;-65
2021/03/24 04:24:46;;;;;;;2.28;1.90;;;;;;;;;;4991770;28;20029;-65
2021/03/24 04:27:12;;;;;;;3.67;2.30;;;;;;;;;;4991838;28;20426;-65
2021/03/24 04:29:37;;;;;;;6.03;2.53;;;;;;;;;;4989256;28;20114;-65
2021/03/24 04:32:03;;;;;;;4.85;2.97;;;;;;;;;;4989657;28;20121;-65
2021/03/24 04:34:29;;;;;;;3.90;2.85;;;;;;;;;;4991306;28;20038;-65
2021/03/24 04:37:04;;;;;;;3.88;2.10;;;;;;;;;;4984549;28;20041;-65
2021/03/24 04:39:33;;;;;;;5.80;1.85;;;;;;;;;;4991684;28;20034;-65
2021/03/24 04:42:00;;;;;;;2.15;1.65;;;;;;;;;;4990220;28;20037;-65
2021/03/24 04:44:27;;;;;;;2.50;1.58;;;;;;;;;;4991856;28;20481;-65
2021/03/24 04:46:57;;;;;;;4.40;2.33;;;;;;;;;;4991624;28;20031;-65
2021/03/24 04:49:25;;;;;;;5.68;1.20;;;;;;;;;;4991347;28;20461;-65
2021/03/24 04:51:51;;;;;;;5.25;1.73;;;;;;;;;;4990893;28;20481;-65
2021/03/24 04:54:19;;;;;;;3.10;2.03;;;;;;;;;;4991681;28;20121;-65
2021/03/24 04:56:47;;;;;;;2.92;2.00;;;;;;;;;;4991490;28;20022;-65
2021/03/24 04:59:16;;;;;;;2.58;1.38;;;;;;;;;;4991496;28;20069;-65
2021/03/24 05:01:44;;;;;;;2.17;1.98;;;;;;;;;;4984050;28;20477;-65
2021/03/24 05:04:18;;;;;;;3.63;2.22;;;;;;;;;;4988068;28;20072;-65
2021/03/24 05:06:44;;;;;;;4.20;1.70;;;;;;;;;;4988858;28;20034;-65
2021/03/24 05:09:10;;;;;;;4.32;2.10;;;;;;;;;;4988074;28;20444;-65
2021/03/24 05:11:38;;;;;;;2.97;1.40;;;;;;;;;;4973592;28;20074;-65
2021/03/24 05:14:19;;;;;;;3.10;1.45;;;;;;;;;;4972414;28;20031;-66
2021/03/24 05:16:46;;;;;;;5.22;2.33;;;;;;;;;;4987902;28;20030;-65
2021/03/24 05:19:19;;;;;;;2.05;1.33;;;;;;;;;;4991079;28;20041;-65
2021/03/24 05:22:03;;;;;;;3.22;1.75;;;;;;;;;;4991249;28;20063;-65
2021/03/24 05:24:30;;;;;;;4.10;3.40;;;;;;;;;;4990567;28;20030;-65
2021/03/24 05:27:05;;;;;;;15.80;3.53;;;;;;;;;;4991173;28;20030;-65
2021/03/24 05:29:33;;;;;;;6.32;4.10;;;;;;;;;;4994975;28;20034;-65
2021/03/24 05:31:59;;;;;;;8.38;3.97;;;;;;;;;;4992545;28;20131;-65
2021/03/24 05:34:29;;;;;;;6.30;3.25;;;;;;;;;;4995004;28;20029;-65
2021/03/24 05:36:55;;;;;;;6.43;3.70;;;;;;;;;;4994219;28;20031;-65
2021/03/24 05:39:25;;;;;;;5.78;4.15;;;;;;;;;;4991446;28;20397;-65
2021/03/24 05:41:50;;;;;;;10.15;6.40;;;;;;;;;;4992214;28;20974;-66
2021/03/24 05:44:34;;;;;;;11.00;5.25;;;;;;;;;;4994979;28;20038;-66
2021/03/24 05:47:26;;;;;;;7.43;5.18;;;;;;;;;;4994652;28;20026;-66
2021/03/24 05:50:16;;;;;;;6.88;4.53;;;;;;;;;;4991811;28;20118;-66
2021/03/24 05:53:00;;;;;;;8.38;3.75;;;;;;;;;;4994586;28;20466;-66
2021/03/24 05:55:28;;;;;;;5.65;3.35;;;;;;;;;;4994461;28;20026;-66
2021/03/24 05:58:09;;;;;;;4.93;3.63;;;;;;;;;;4994730;28;20383;-65
2021/03/24 06:00:40;;;;;;;5.40;3.63;;;;;;;;;;4991092;28;20030;-66
2021/03/24 06:03:06;;;;;;;4.40;3.72;;;;;;;;;;4994337;28;20382;-66
2021/03/24 06:05:50;;;;;;;12.77;4.40;;;;;;;;;;4994167;28;20034;-66
2021/03/24 06:08:41;;;;;;;8.27;5.13;;;;;;;;;;4994077;28;20022;-66
2021/03/24 06:11:09;;;;;;;6.65;4.07;;;;;;;;;;4966921;28;20485;-66
2021/03/24 06:14:10;;;;;;;9.43;3.95;;;;;;;;;;4976622;28;20035;-66
2021/03/24 06:16:54;;;;;;;12.55;3.95;;;;;;;;;;4933917;29;20080;-66
2021/03/24 06:19:38;;;;;;;4.32;3.13;;;;;;;;;;4984377;28;20377;-66
2021/03/24 06:22:21;;;;;;;6.72;3.72;;;;;;;;;;4993890;28;20026;-66
2021/03/24 06:24:53;;;;;;;9.57;5.53;;;;;;;;;;4994150;28;20101;-66
2021/03/24 06:27:37;;;;;;;18.98;8.00;;;;;;;;;;4993750;28;20029;-66
2021/03/24 06:30:21;;;;;;;11.23;6.88;;;;;;;;;;4989302;28;20040;-66
2021/03/24 06:32:58;;;;;;;13.88;10.48;;;;;;;;;;4993828;28;20480;-66
2021/03/24 06:35:33;;;;;;;15.10;8.13;;;;;;;;;;4994403;28;20027;-60
2021/03/24 06:38:05;;;;;;;15.75;8.15;;;;;;;;;;4976211;28;20096;-61
2021/03/24 06:40:41;;;;;;;7.85;6.15;;;;;;;;;;4992411;28;20109;-61
2021/03/24 06:43:18;;;;;;;8.38;7.00;;;;;;;;;;4993758;28;20054;-60
2021/03/24 06:46:19;;;;;;;16.80;5.57;;;;;;;;;;4976172;28;20048;-61
2021/03/24 06:48:48;;;;;;;12.48;6.07;;;;;;;;;;4933608;29;20102;-61
2021/03/24 06:51:16;;;;;;;21.35;5.47;;;;;;;;;;4982195;28;20042;-61
2021/03/24 06:53:53;;;;;;;8.23;6.75;;;;;;;;;;4990368;28;20019;-60
2021/03/24 06:56:37;;;;;;;14.48;8.20;;;;;;;;;;4987786;28;20030;-61
2021/03/24 06:59:06;;;;;;;10.20;7.53;;;;;;;;;;4993625;28;20027;-60
2021/03/24 07:01:40;;;;;;;9.13;8.05;;;;;;;;;;4993206;28;20054;-61
2021/03/24 07:04:25;;;;;;;10.75;7.78;;;;;;;;;;4993601;28;20027;-61
2021/03/24 07:06:53;;;;;;;9.43;5.68;;;;;;;;;;4992220;28;20076;-61
2021/03/24 07:09:21;;;;;;;19.65;8.00;;;;;;;;;;4974195;28;20027;-60
2021/03/24 07:12:01;;;;;;;6.20;5.13;;;;;;;;;;4984777;28;20037;-61
2021/03/24 07:14:39;;;;;;;6.32;5.30;;;;;;;;;;4993519;28;20034;-61
2021/03/24 07:17:07;;;;;;;9.52;5.72;;;;;;;;;;4993294;28;20030;-61
2021/03/24 07:19:50;;;;;;;4.80;4.15;;;;;;;;;;4993372;28;20026;-61
2021/03/24 07:22:28;;;;;;;6.63;3.60;;;;;;;;;;4993207;28;20030;-60
2021/03/24 07:25:02;;;;;;;7.53;5.03;;;;;;;;;;4993289;28;20026;-61
2021/03/24 07:27:39;;;;;;;25.88;5.35;;;;;;;;;;4992843;28;20023;-61
2021/03/24 07:30:05;;;;;;;42.92;6.65;;;;;;;;;;4991362;28;20030;-60
2021/03/24 07:33:00;;;;;;;9.02;5.88;;;;;;;;;;4991976;28;20349;-61
2021/03/24 07:35:25;;;;;;;7.47;3.88;;;;;;;;;;4980197;28;20042;-61
2021/03/24 07:38:09;;;;;;;6.85;5.35;;;;;;;;;;4992753;28;20029;-61
2021/03/24 07:41:06;;;;;;;5.03;3.58;;;;;;;;;;4989494;28;20117;-61
2021/03/24 07:43:40;;;;;;;7.40;3.60;;;;;;;;;;4959100;28;20050;-62
2021/03/24 07:46:14;;;;;;;8.82;4.15;;;;;;;;;;4989953;28;20146;-62
2021/03/24 07:48:42;;;;;;;12.30;4.05;;;;;;;;;;4988734;28;20057;-60
2021/03/24 07:51:26;;;;;;;11.77;6.95;;;;;;;;;;4986272;28;20030;-60
2021/03/24 07:54:15;;;;;;;6.75;4.07;;;;;;;;;;4970629;28;20030;-60
2021/03/24 07:56:42;;;;;;;11.95;4.18;;;;;;;;;;4986588;28;20037;-61
2021/03/24 07:59:07;;;;;;;9.10;7.13;;;;;;;;;;4992003;28;20034;-60
2021/03/24 08:01:51;;;;;;;23.08;7.03;;;;;;;;;;4992181;28;20387;-60
2021/03/24 08:04:35;;;;;;;8.43;6.18;;;;;;;;;;4979953;28;20039;-59
2021/03/24 08:07:03;;;;;;;5.78;4.95;;;;;;;;;;4978381;28;20019;-61
2021/03/24 08:09:47;;;;;;;7.32;5.25;;;;;;;;;;4978154;28;20018;-61
2021/03/24 08:12:13;;;;;;;9.18;6.93;;;;;;;;;;4981540;28;20163;-60
2021/03/24 08:14:53;;;;;;;6.22;5.63;;;;;;;;;;4977424;28;20026;-64
2021/03/24 08:17:45;;;;;;;8.27;6.67;;;;;;;;;;4978486;28;20034;-64
2021/03/24 08:20:10;;;;;;;5.38;4.13;;;;;;;;;;4945821;28;20372;-66
2021/03/24 08:22:47;;;;;;;9.07;5.32;;;;;;;;;;4979699;28;20140;-65
2021/03/24 08:25:21;;;;;;;13.60;5.82;;;;;;;;;;4984399;28;20378;-65
2021/03/24 08:27:52;;;;;;;7.95;4.30;;;;;;;;;;4989232;28;20028;-65
2021/03/24 08:30:18;;;;;;;;;;;;;;;;;;4983736;28;20520;-65
2021/03/24 08:33:02;;;;;;;6.27;4.40;;;;;;;;;;4985104;28;19973;-65
2021/03/24 08:35:45;;;;;;;19.98;4.60;;;;;;;;;;4989038;28;20339;-65
2021/03/24 08:38:29;;;;;;;9.00;4.45;;;;;;;;;;4991371;28;20030;-66
2021/03/24 08:41:13;;;;;;;5.57;3.78;;;;;;;;;;4989912;28;20437;-65
2021/03/24 08:43:45;;;;;;;4.47;3.63;;;;;;;;;;4988667;28;20042;-65
2021/03/24 08:46:16;;;;;;;8.88;3.08;;;;;;;;;;4987525;28;20037;-64
2021/03/24 08:48:49;;;;;;;6.30;3.05;;;;;;;;;;4974440;28;20033;-64
2021/03/24 08:51:18;;;;;;;11.70;3.35;;;;;;;;;;4985734;28;20022;-64
2021/03/24 08:53:46;;;;;;;7.65;3.63;;;;;;;;;;4970188;28;20455;-65
2021/03/24 08:56:17;;;;;;;11.90;4.70;;;;;;;;;;4988091;28;20064;-65
2021/03/24 08:58:45;;;;;;;2.88;1.83;;;;;;;;;;4991300;28;20054;-65
2021/03/24 09:01:26;;;;;;;7.82;2.80;;;;;;;;;;4987767;28;20097;-65
2021/03/24 09:03:57;;;;;;;6.53;3.50;;;;;;;;;;4987207;28;20030;-66
2021/03/24 09:06:22;;;;;;;12.38;6.15;;;;;;;;;;4972380;28;20057;-65
2021/03/24 09:09:02;;;;;;;7.57;4.80;;;;;;;;;;4981712;28;20058;-65
2021/03/24 09:14:35;;;;;;;2.83;2.60;;;;;;;;;;4981964;28;20476;-65
2021/03/24 09:17:03;;;;;;;8.82;5.30;;;;;;;;;;4982862;28;20385;-65
2021/03/24 09:19:38;;;;;;;4.25;3.80;;;;;;;;;;4983263;28;20038;-65
2021/03/24 09:22:12;;;;;;;6.25;4.20;;;;;;;;;;4982605;28;20026;-65
2021/03/24 09:24:50;;;;;;;21.85;5.03;;;;;;;;;;4982229;28;20029;-65
2021/03/24 09:27:34;;;;;;;6.35;4.53;;;;;;;;;;4983569;28;20022;-65
2021/03/24 09:30:18;;;;;;;18.23;7.32;;;;;;;;;;4989131;28;20027;-65
2021/03/24 09:32:51;;;;;;;15.63;6.63;;;;;;;;;;4973916;28;20443;-63
2021/03/24 09:35:25;;;;;;;11.05;5.45;;;;;;;;;;4975522;28;20536;-63
2021/03/24 09:38:03;;;;;;;7.95;4.32;;;;;;;;;;4981436;28;20030;-65
2021/03/24 09:40:32;;;;;;;9.88;5.65;;;;;;;;;;4982045;28;20385;-65
2021/03/24 09:42:58;;;;;;;10.25;4.72;;;;;;;;;;4980598;28;20022;-64
2021/03/24 09:45:32;;;;;;;3.72;2.38;;;;;;;;;;4982145;28;20046;-66
2021/03/24 09:48:10;;;;;;;12.32;3.33;;;;;;;;;;4981024;28;20026;-66
2021/03/24 09:50:40;;;;;;;5.50;2.83;;;;;;;;;;4962962;28;20038;-67
2021/03/24 09:53:06;;;;;;;3.60;2.28;;;;;;;;;;4983332;28;20026;-66
2021/03/24 09:55:39;;;;;;;3.33;1.88;;;;;;;;;;4983205;28;20034;-67
2021/03/24 09:58:07;;;;;;;5.57;3.92;;;;;;;;;;4979200;28;20023;-65
2021/03/24 10:00:40;;;;;;;5.75;3.90;;;;;;;;;;4971672;28;20125;-66
2021/03/24 10:03:23;;;;;;;12.98;2.17;;;;;;;;;;4988367;28;20046;-66
2021/03/24 10:05:51;;;;;;;6.68;2.22;;;;;;;;;;4976887;28;20023;-65
2021/03/24 10:08:28;;;;;;;12.45;2.60;;;;;;;;;;4993612;28;20024;-65
2021/03/24 10:10:58;;;;;;;5.30;3.35;;;;;;;;;;4991088;28;20023;-65
2021/03/24 10:13:25;;;;;;;11.55;4.70;;;;;;;;;;4992129;28;20026;-65
2021/03/24 10:15:51;;;;;;;13.93;6.00;;;;;;;;;;4990841;28;20092;-64
2021/03/24 10:18:22;;;;;;;8.95;5.68;;;;;;;;;;4988125;28;20109;-65
2021/03/24 10:20:47;;;;;;;;;;;;;;;;;;4981941;28;20035;-65
2021/03/24 10:23:16;;;;;;;3.20;2.33;;;;;;;;;;4983826;28;20321;-65
2021/03/24 10:26:04;;;;;;;10.05;2.42;;;;;;;;;;4993828;28;20038;-66
2021/03/24 10:28:36;;;;;;;3.80;2.90;;;;;;;;;;4985415;28;20363;-65
2021/03/24 10:31:06;;;;;;;11.05;3.75;;;;;;;;;;4989027;28;20385;-66
2021/03/24 10:33:31;;;;;;;2.10;1.50;;;;;;;;;;4970850;28;20583;-65
2021/03/24 10:36:02;;;;;;;8.57;6.75;;;;;;;;;;4979658;28;20030;-65
2021/03/24 10:38:41;;;;;;;4.13;2.67;;;;;;;;;;4990522;28;20408;-66
2021/03/24 10:41:16;;;;;;;9.13;4.15;;;;;;;;;;4991945;28;20117;-65
2021/03/24 10:43:47;;;;;;;3.92;1.88;;;;;;;;;;4992173;28;20049;-65
2021/03/24 10:46:18;;;;;;;4.80;2.08;;;;;;;;;;4990072;28;20092;-65
2021/03/24 10:48:53;;;;;;;3.65;2.20;;;;;;;;;;4988721;28;20030;-66
2021/03/24 10:51:37;;;;;;;12.68;2.25;;;;;;;;;;4989173;28;20042;-65
2021/03/24 10:54:18;;;;;;;19.13;6.18;;;;;;;;;;4992044;28;20034;-65
2021/03/24 10:56:52;;;;;;;2.25;0.90;;;;;;;;;;4982877;28;20110;-65
2021/03/24 10:59:26;;;;;;;5.97;2.55;;;;;;;;;;4985717;28;20042;-65
2021/03/24 11:02:13;;;;;;;2.05;1.27;;;;;;;;;;4993068;28;20120;-65
2021/03/24 11:04:38;;;;;;;3.75;2.00;;;;;;;;;;4990369;28;20543;-65
2021/03/24 11:07:08;;;;;;;7.47;1.98;;;;;;;;;;4986906;28;20027;-66
2021/03/24 11:09:56;;;;;;;4.95;2.28;;;;;;;;;;4990093;28;20026;-65
2021/03/24 11:12:33;;;;;;;2.20;1.38;;;;;;;;;;4982797;28;20474;-65
2021/03/24 11:14:59;;;;;;;5.18;3.28;;;;;;;;;;4992785;28;20089;-66
2021/03/24 11:17:27;;;;;;;5.25;2.05;;;;;;;;;;4992571;28;20517;-66
2021/03/24 11:20:08;;;;;;;4.90;1.98;;;;;;;;;;4987657;28;20058;-66
2021/03/24 11:22:50;;;;;;;3.55;2.63;;;;;;;;;;4987365;28;20023;-66
2021/03/24 11:25:15;;;;;;;5.93;1.52;;;;;;;;;;4979843;28;20485;-65
2021/03/24 11:27:43;;;;;;;7.13;2.17;;;;;;;;;;4988103;28;20105;-66
2021/03/24 11:30:08;;;;;;;4.57;2.65;;;;;;;;;;4986018;28;20026;-66
2021/03/24 11:32:49;;;;;;;4.18;2.60;;;;;;;;;;4987617;28;20041;-66
2021/03/24 11:35:23;;;;;;;4.05;2.28;;;;;;;;;;4979396;28;20054;-66
2021/03/24 11:37:48;;;;;;;2.33;1.30;;;;;;;;;;4989451;28;20069;-65
2021/03/24 11:40:32;;;;;;;4.00;2.15;;;;;;;;;;4982759;28;20058;-66
2021/03/24 11:42:59;;;;;;;4.90;1.98;;;;;;;;;;4983858;28;20062;-66
2021/03/24 11:45:26;;;;;;;7.82;2.35;;;;;;;;;;4992748;28;20026;-65
2021/03/24 11:47:51;;;;;;;5.43;2.33;;;;;;;;;;4986484;28;20031;-66
2021/03/24 11:50:21;;;;;;;4.93;3.03;;;;;;;;;;4982733;28;20041;-66
2021/03/24 11:53:13;;;;;;;2.08;1.13;;;;;;;;;;4987090;28;20038;-66
2021/03/24 11:55:54;;;;;;;2.63;1.40;;;;;;;;;;4987662;28;20069;-65
2021/03/24 11:58:35;;;;;;;9.25;2.53;;;;;;;;;;4989420;28;20044;-66
2021/03/24 12:01:01;;;;;;;7.00;4.53;;;;;;;;;;4979714;28;20058;-66
2021/03/24 12:03:45;;;;;;;6.07;2.10;;;;;;;;;;4983539;28;20100;-65
2021/03/24 12:06:30;;;;;;;4.40;3.40;;;;;;;;;;4990240;28;20113;-66
2021/03/24 12:09:01;;;;;;;11.90;4.38;;;;;;;;;;4960842;28;20042;-65
2021/03/24 12:11:26;;;;;;;;;;;;;;;;;;4984562;28;20038;-66
2021/03/24 12:14:05;;;;;;;8.02;2.92;;;;;;;;;;4988543;28;19916;-66
2021/03/24 12:16:39;;;;;;;3.95;2.65;;;;;;;;;;4991165;28;20389;-66
2021/03/24 12:19:04;;;;;;;14.00;3.47;;;;;;;;;;4990934;28;20066;-65
2021/03/24 12:21:31;;;;;;;6.85;2.00;;;;;;;;;;4989999;28;20064;-65
2021/03/24 12:23:59;;;;;;;6.03;2.42;;;;;;;;;;4981883;28;20063;-65
2021/03/24 12:26:32;;;;;;;3.33;1.70;;;;;;;;;;4988493;28;20093;-67
2021/03/24 12:29:04;;;;;;;3.17;1.48;;;;;;;;;;4990471;28;20109;-67
2021/03/24 12:31:29;;;;;;;6.82;2.70;;;;;;;;;;4989454;28;20041;-67
2021/03/24 12:33:57;;;;;;;3.58;1.35;;;;;;;;;;4978509;28;20022;-66
2021/03/24 12:36:24;;;;;;;5.75;2.58;;;;;;;;;;4988279;28;20085;-61
2021/03/24 12:38:58;;;;;;;7.20;2.30;;;;;;;;;;4991814;28;20109;-60
2021/03/24 12:41:29;;;;;;;2.53;1.35;;;;;;;;;;4991518;28;20026;-60
2021/03/24 12:44:05;;;;;;;6.57;3.08;;;;;;;;;;4985695;28;20043;-60
2021/03/24 12:46:31;;;;;;;3.38;1.92;;;;;;;;;;4989276;28;20109;-60
2021/03/24 12:48:58;;;;;;;1.30;0.98;;;;;;;;;;4989043;28;20118;-60
2021/03/24 12:51:29;;;;;;;5.63;2.28;;;;;;;;;;4988292;28;20066;-60
2021/03/24 12:53:59;;;;;;;4.65;2.13;;;;;;;;;;4991928;28;20041;-60
2021/03/24 12:56:28;;;;;;;11.32;2.40;;;;;;;;;;4989169;28;20037;-61
2021/03/24 12:58:55;;;;;;;3.00;2.55;;;;;;;;;;4986606;28;20109;-61
2021/03/24 13:01:21;;;;;;;3.90;1.70;;;;;;;;;;4988709;28;20154;-58
2021/03/24 13:03:49;;;;;;;10.90;2.05;;;;;;;;;;4991338;28;20200;-59
2021/03/24 13:06:17;;;;;;;8.73;2.10;;;;;;;;;;4981661;28;20092;-58
2021/03/24 13:08:48;;;;;;;3.15;2.00;;;;;;;;;;4973716;28;20027;-59
2021/03/24 13:11:32;;;;;;;3.92;2.20;;;;;;;;;;4984333;28;20023;-59
2021/03/24 13:14:16;;;;;;;4.75;2.97;;;;;;;;;;4990698;28;20717;-59
2021/03/24 13:16:44;;;;;;;3.90;1.25;;;;;;;;;;4965912;28;20028;-61
2021/03/24 13:19:36;;;;;;;7.63;6.82;;;;;;;;;;4988780;28;20026;-61
2021/03/24 13:22:17;;;;;;;9.75;6.45;;;;;;;;;;4965557;28;20913;-63
2021/03/24 13:24:51;;;;;;;9.98;2.47;;;;;;;;;;4991489;28;20023;-61
2021/03/24 13:27:22;;;;;;;9.65;3.22;;;;;;;;;;4991228;28;20639;-61
2021/03/24 13:30:08;;;;;;;3.20;1.40;;;;;;;;;;4986661;28;20030;-61
2021/03/24 13:32:39;;;;;;;6.60;2.33;;;;;;;;;;4987104;28;20077;-61
2021/03/24 13:35:10;;;;;;;2.25;1.85;;;;;;;;;;4991533;28;20059;-62
2021/03/24 13:37:36;;;;;;;1.75;1.00;;;;;;;;;;4991119;28;20030;-61
2021/03/24 13:40:21;;;;;;;5.25;2.90;;;;;;;;;;4991319;28;20046;-62
2021/03/24 13:42:59;;;;;;;4.30;2.40;;;;;;;;;;4989554;28;20101;-62
2021/03/24 13:45:24;;;;;;;2.55;1.80;;;;;;;;;;4990951;28;20030;-62
2021/03/24 13:47:52;;;;;;;10.93;5.80;;;;;;;;;;4991226;28;20040;-62
2021/03/24 13:50:26;;;;;;;2.97;1.80;;;;;;;;;;4993522;28;20049;-61
2021/03/24 13:53:02;;;;;;;12.98;2.53;;;;;;;;;;4982585;28;20465;-61
2021/03/24 13:55:34;;;;;;;6.43;4.35;;;;;;;;;;4992167;28;20137;-61
2021/03/24 13:58:10;;;;;;;5.57;2.97;;;;;;;;;;4993590;28;20453;-61
2021/03/24 14:00:54;;;;;;;8.20;2.83;;;;;;;;;;4994039;28;20030;-61
2021/03/24 14:03:30;;;;;;;14.18;12.52;;;;;;;;;;4993024;28;20035;-61
2021/03/24 14:06:22;;;;;;;4.45;1.92;;;;;;;;;;4993147;28;20041;-66
2021/03/24 14:08:52;;;;;;;8.77;6.15;;;;;;;;;;4966624;28;20393;-67
2021/03/24 14:11:30;;;;;;;5.80;4.10;;;;;;;;;;4990673;28;20179;-67
2021/03/24 14:14:21;;;;;;;2.60;1.30;;;;;;;;;;4994394;28;20058;-66
2021/03/24 14:16:57;;;;;;;4.28;2.00;;;;;;;;;;4964920;28;20046;-66
2021/03/24 14:19:41;;;;;;;7.60;3.17;;;;;;;;;;4989483;28;20060;-67
2021/03/24 14:22:20;;;;;;;7.88;3.45;;;;;;;;;;4993824;28;20067;-66
2021/03/24 14:24:45;;;;;;;3.40;2.72;;;;;;;;;;4988864;28;20034;-66
2021/03/24 14:27:19;;;;;;;2.47;1.35;;;;;;;;;;4991872;28;20046;-67
2021/03/24 14:29:49;;;;;;;2.25;1.27;;;;;;;;;;4986936;28;20019;-66
2021/03/24 14:32:14;;;;;;;6.10;3.85;;;;;;;;;;4972832;28;20481;-66
2021/03/24 14:35:02;;;;;;;6.57;3.00;;;;;;;;;;4990183;28;20033;-66
2021/03/24 14:37:30;;;;;;;3.95;2.15;;;;;;;;;;4989783;28;20038;-66
2021/03/24 14:39:55;;;;;;;4.18;2.33;;;;;;;;;;4981535;28;20821;-66
2021/03/24 14:42:39;;;;;;;5.30;2.65;;;;;;;;;;4989786;28;20106;-67
2021/03/24 14:45:22;;;;;;;6.72;1.80;;;;;;;;;;4990629;28;20410;-66
2021/03/24 14:48:06;;;;;;;4.30;2.80;;;;;;;;;;4992319;28;20507;-67
2021/03/24 14:50:31;;;;;;;7.63;2.15;;;;;;;;;;4975594;28;20034;-66
2021/03/24 14:53:02;;;;;;;1.80;1.42;;;;;;;;;;4990177;28;20049;-67
2021/03/24 14:55:45;;;;;;;1.98;1.45;;;;;;;;;;4983701;28;20043;-66
2021/03/24 14:58:23;;;;;;;3.22;1.58;;;;;;;;;;4990186;28;20041;-66
2021/03/24 15:00:48;;;;;;;1.80;1.20;;;;;;;;;;4992467;28;20034;-66
2021/03/24 15:03:20;;;;;;;5.88;2.67;;;;;;;;;;4981658;28;20034;-66
2021/03/24 15:05:45;;;;;;;9.85;3.10;;;;;;;;;;4985454;28;20019;-67
2021/03/24 15:08:22;;;;;;;5.60;4.22;;;;;;;;;;4975657;28;20080;-66
2021/03/24 15:10:52;;;;;;;4.10;3.00;;;;;;;;;;4993243;28;20053;-66
2021/03/24 15:13:36;;;;;;;5.32;2.28;;;;;;;;;;4977605;28;20041;-66
2021/03/24 15:16:16;;;;;;;1.27;1.10;;;;;;;;;;4987526;28;20042;-66
2021/03/24 15:18:51;;;;;;;6.32;2.97;;;;;;;;;;4985327;28;20397;-64